Strona główna
METAR-TAF:

METAR-TAF

Lotnisko :

Port lotniczy Recife

Recife, Pernambuco, Brazylia

Szerokość geograficzna: 08-08S, Długość geograficzna: 034-55W, wysokość: 19 m

Aktualna obserwacja pogody

Raport powstał 52 minut temu, godzina 00:00 UTC
Wiatr 7 kt od południe
Temperatura 25°C
Wilgotność 89%
Ciśnienie 1017 hPa
Widzialność 10 km lub więcej
Mało chmury na wysokości 2300 ft

METAR: SBRF 170000Z 18007KT 9999 FEW023 25/23 Q1017

czas: 21:52 (00:52 UTC)

Prognoza

Raport powstał 2 godziny i 52 minut temu, godzina 22:00 UTC
Prognoza ważna od 17 godzina 00 UTC do 17 godzina 24 UTC
Wiatr 10 kt od południowy wschód
Widzialność: 8000 m
Rozproszone chmury na wysokości 2200 ft
Przejściowo
od 17 godzina 07 UTC do 17 godzina 09 UTC
Widzialność: 6000 m
Przerywane chmury na wysokości 1500 ft
przelotny opad deszczu

TAF: SBRF 162200Z 1700/1724 14010KT 8000 SCT022 TN26/1707Z TX30/1715Z TEMPO 1707/1709 6000 SHRA BKN015 RMK PEA

Obserwacja i prognoza pogody dla ponad 4000 lotnisk (raport METAR i TAF).

Dostępne stacje oznaczono żółtymi i czerwonymi punktami na mapie.

Najedź kursorem aby zobaczyć nazwę stacji.

Kliknij aby zobaczyć obserwacje i prognozy pogody.

Aby zmienić mapę: kliknij na zielony przycisk z czarnym krzyżykiem, aby powiększyć; na zielony przycisk z myślnikiem, aby pomniejszyć; na zielone strzałki, aby przejść do map sąsiednich.


METAR-TAF: